createdAt,value
2022-08-20T00:03:04.332Z,99057.59
2022-08-20T00:06:11.320Z,99061.13
2022-08-20T00:09:14.691Z,99059.50
2022-08-20T00:12:19.479Z,99066.66
2022-08-20T00:15:28.576Z,99063.19
2022-08-20T00:18:32.100Z,99061.25
2022-08-20T00:21:36.678Z,99056.25
2022-08-20T00:24:39.999Z,99053.28
2022-08-20T00:27:44.763Z,99054.53
2022-08-20T00:30:49.626Z,99058.34
2022-08-20T00:33:53.620Z,99060.75
2022-08-20T00:36:57.051Z,99054.81
2022-08-20T00:40:00.901Z,99059.84
2022-08-20T00:43:08.317Z,99055.13
2022-08-20T00:46:14.235Z,99049.78
2022-08-20T00:49:22.239Z,99048.75
2022-08-20T00:52:25.651Z,99052.56
2022-08-20T00:55:31.647Z,99050.72
2022-08-20T00:58:38.508Z,99052.28
2022-08-20T01:01:55.192Z,99059.75
2022-08-20T01:05:00.218Z,99048.84
2022-08-20T01:08:04.640Z,99044.53
2022-08-20T01:11:10.418Z,99051.44
2022-08-20T01:14:31.811Z,99045.91
2022-08-20T01:17:38.026Z,99044.88
2022-08-20T01:20:44.399Z,99035.53
2022-08-20T01:23:53.232Z,99033.00
2022-08-20T01:26:58.352Z,99039.19
2022-08-20T01:30:06.945Z,99039.16
2022-08-20T01:33:10.754Z,99026.59
2022-08-20T01:36:16.737Z,99031.16
2022-08-20T01:39:24.000Z,99029.34
2022-08-20T01:42:37.557Z,99039.16
2022-08-20T01:45:57.238Z,99033.34
2022-08-20T01:49:13.534Z,99028.78
2022-08-20T01:52:26.170Z,99023.25
2022-08-20T01:55:29.529Z,99024.31
2022-08-20T01:58:37.028Z,99028.63
2022-08-20T02:01:46.752Z,99035.78
2022-08-20T02:04:50.408Z,99043.03
2022-08-20T02:07:53.689Z,99044.69
2022-08-20T02:10:57.372Z,99041.97
2022-08-20T02:14:02.373Z,99043.56
2022-08-20T02:17:10.050Z,99047.28
2022-08-20T02:20:17.089Z,99049.34
2022-08-20T02:23:20.808Z,99045.69
2022-08-20T02:26:24.605Z,99044.13
2022-08-20T02:29:29.435Z,99042.25
2022-08-20T02:32:34.396Z,99035.59
2022-08-20T02:35:38.872Z,99044.97
2022-08-20T02:38:42.881Z,99038.03
2022-08-20T02:41:46.799Z,99038.81
2022-08-20T02:44:51.849Z,99028.59
2022-08-20T02:47:56.904Z,99033.94
2022-08-20T02:51:03.887Z,99034.72
2022-08-20T02:54:07.365Z,99033.66
2022-08-20T02:57:14.036Z,99032.84
2022-08-20T03:00:22.853Z,99026.72
2022-08-20T03:03:26.720Z,99015.47
2022-08-20T03:06:30.648Z,99031.00
2022-08-20T03:09:34.530Z,99035.31
2022-08-20T03:12:38.507Z,99029.16
2022-08-20T03:15:46.691Z,99021.09
2022-08-20T03:18:52.067Z,99018.41
2022-08-20T03:21:55.725Z,99023.53
2022-08-20T03:24:59.130Z,99023.22
2022-08-20T03:28:02.785Z,99026.69
2022-08-20T03:31:07.634Z,99031.25
2022-08-20T03:34:10.969Z,99034.25
2022-08-20T03:37:14.469Z,99039.34
2022-08-20T03:40:23.540Z,99035.06
2022-08-20T03:43:26.916Z,99034.78
2022-08-20T03:46:31.786Z,99039.06
2022-08-20T03:49:35.727Z,99037.75
2022-08-20T03:52:39.252Z,99038.53
2022-08-20T03:55:45.345Z,99036.41
2022-08-20T03:58:48.799Z,99046.56
2022-08-20T04:01:54.847Z,99037.72
2022-08-20T04:04:58.189Z,99037.97
2022-08-20T04:08:03.127Z,99040.25
2022-08-20T04:11:07.119Z,99036.75
2022-08-20T04:14:11.682Z,99031.56
2022-08-20T04:17:22.119Z,99039.84
2022-08-20T04:20:26.522Z,99039.28
2022-08-20T04:23:30.218Z,99045.78
2022-08-20T04:26:37.357Z,99054.59
2022-08-20T04:29:43.159Z,99058.09
2022-08-20T04:32:48.983Z,99063.19
2022-08-20T04:35:53.390Z,99062.66
2022-08-20T04:38:56.919Z,99065.09
2022-08-20T04:42:00.443Z,99067.75
2022-08-20T04:45:03.868Z,99067.25
2022-08-20T04:48:14.262Z,99065.84
2022-08-20T04:51:18.902Z,99064.41
2022-08-20T04:54:22.376Z,99067.44
2022-08-20T04:57:26.657Z,99067.84
2022-08-20T05:00:32.969Z,99075.53
2022-08-20T05:03:39.099Z,99071.75
2022-08-20T05:06:42.423Z,99062.25
2022-08-20T05:09:46.579Z,99065.84
2022-08-20T05:12:55.105Z,99064.69
2022-08-20T05:16:01.415Z,99064.00
2022-08-20T05:19:06.512Z,99068.34
2022-08-20T05:22:10.115Z,99068.47
2022-08-20T05:25:13.985Z,99062.56
2022-08-20T05:28:20.516Z,99071.84
2022-08-20T05:31:23.887Z,99065.19
2022-08-20T05:34:37.460Z,99073.31
2022-08-20T05:37:42.369Z,99068.59
2022-08-20T05:40:46.814Z,99066.03
2022-08-20T05:43:51.526Z,99070.50
2022-08-20T05:46:55.003Z,99066.56
2022-08-20T05:49:59.912Z,99067.56
2022-08-20T05:53:03.321Z,99069.47
2022-08-20T05:56:07.055Z,99073.53
2022-08-20T05:59:12.630Z,99068.94
2022-08-20T06:02:33.800Z,99061.16
2022-08-20T06:05:38.607Z,99065.31
2022-08-20T06:08:42.226Z,99060.03
2022-08-20T06:11:45.535Z,99060.81
2022-08-20T06:14:48.895Z,99067.91
2022-08-20T06:17:58.189Z,99063.94
2022-08-20T06:21:03.435Z,99059.28
2022-08-20T06:24:07.963Z,99055.81
2022-08-20T06:27:15.742Z,99056.84
2022-08-20T06:30:19.099Z,99060.13
2022-08-20T06:33:22.508Z,99053.34
2022-08-20T06:36:27.489Z,99056.56
2022-08-20T06:39:31.296Z,99042.09
2022-08-20T06:42:34.680Z,99054.63
2022-08-20T06:45:39.177Z,99053.41
2022-08-20T06:48:43.492Z,99055.34
2022-08-20T06:51:50.069Z,99060.06
2022-08-20T06:54:55.491Z,99055.53
2022-08-20T06:57:59.890Z,99054.34
2022-08-20T07:01:09.395Z,99057.47
2022-08-20T07:04:13.682Z,99054.53
2022-08-20T07:07:20.696Z,99050.13
2022-08-20T07:10:25.874Z,99049.38
2022-08-20T07:13:29.494Z,99052.94
2022-08-20T07:16:33.313Z,99040.19
2022-08-20T07:19:37.932Z,99040.41
2022-08-20T07:22:43.597Z,99036.78
2022-08-20T07:25:48.656Z,99043.16
2022-08-20T07:28:52.172Z,99036.00
2022-08-20T07:32:12.658Z,99034.53
2022-08-20T07:35:18.458Z,99038.34
2022-08-20T07:38:26.698Z,99043.22
2022-08-20T07:41:30.051Z,99035.38
2022-08-20T07:44:33.514Z,99036.38
2022-08-20T07:47:36.856Z,99028.53
2022-08-20T07:50:42.997Z,99031.25
2022-08-20T07:53:48.981Z,99030.47
2022-08-20T07:56:52.881Z,99028.94
2022-08-20T07:59:56.428Z,99025.69
2022-08-20T08:03:00.240Z,99012.81
2022-08-20T08:06:03.567Z,99019.66
2022-08-20T08:09:11.048Z,99012.75
2022-08-20T08:12:15.221Z,99009.78
2022-08-20T08:15:22.736Z,99003.28
2022-08-20T08:18:31.904Z,98995.72
2022-08-20T08:21:35.798Z,98992.94
2022-08-20T08:24:41.787Z,98989.38
2022-08-20T08:28:01.066Z,98986.16
2022-08-20T08:31:04.416Z,98983.78
2022-08-20T08:34:07.769Z,98971.97
2022-08-20T08:37:11.219Z,98972.28
2022-08-20T08:40:16.034Z,98958.41
2022-08-20T08:43:21.537Z,98955.41
2022-08-20T08:46:27.977Z,98954.31
2022-08-20T08:49:37.984Z,98945.13
2022-08-20T08:52:42.259Z,98950.41
2022-08-20T08:55:47.054Z,98946.31
2022-08-20T08:58:50.457Z,98938.28
2022-08-20T09:01:57.673Z,98936.31
2022-08-20T09:05:04.321Z,98931.63
2022-08-20T09:08:16.876Z,98931.97
2022-08-20T09:11:25.001Z,98931.34
2022-08-20T09:14:28.286Z,98927.84
2022-08-20T09:17:31.905Z,98921.47
2022-08-20T09:20:35.557Z,98923.22
2022-08-20T09:23:39.384Z,98923.81
2022-08-20T09:26:44.982Z,98914.88
2022-08-20T09:29:49.358Z,98917.44
2022-08-20T09:32:52.819Z,98910.13
2022-08-20T09:35:56.212Z,98905.09
2022-08-20T09:38:59.556Z,98898.34
2022-08-20T09:42:14.936Z,98896.09
2022-08-20T09:45:18.876Z,98899.47
2022-08-20T09:48:22.138Z,98886.44
2022-08-20T09:51:35.531Z,98884.53
2022-08-20T09:54:46.471Z,98882.19
2022-08-20T09:57:52.657Z,98872.84
2022-08-20T10:00:56.045Z,98876.66
2022-08-20T10:03:59.326Z,98863.81
2022-08-20T10:07:02.758Z,98868.91
2022-08-20T10:10:07.492Z,98864.03
2022-08-20T10:13:13.243Z,98852.13
2022-08-20T10:16:18.708Z,98848.09
2022-08-20T10:19:21.997Z,98847.53
2022-08-20T10:22:28.099Z,98851.78
2022-08-20T10:25:31.675Z,98846.13
2022-08-20T10:28:36.808Z,98842.25
2022-08-20T10:31:40.179Z,98839.09
2022-08-20T10:34:46.066Z,98842.22
2022-08-20T10:37:49.488Z,98834.50
2022-08-20T10:40:52.805Z,98833.63
2022-08-20T10:43:57.542Z,98824.78
2022-08-20T10:47:14.755Z,98808.22
2022-08-20T10:50:20.203Z,98816.28
2022-08-20T10:53:23.735Z,98808.44
2022-08-20T10:56:27.275Z,98796.25
2022-08-20T10:59:32.350Z,98794.28
2022-08-20T11:02:35.747Z,98785.03
2022-08-20T11:05:39.429Z,98788.06
2022-08-20T11:08:42.750Z,98779.97
2022-08-20T11:11:46.083Z,98773.38
2022-08-20T11:14:52.334Z,98763.66
2022-08-20T11:17:56.567Z,98768.69
2022-08-20T11:21:00.677Z,98763.25
2022-08-20T11:24:04.789Z,98764.13
2022-08-20T11:27:08.889Z,98767.78
2022-08-20T11:30:16.438Z,98757.47
2022-08-20T11:33:19.833Z,98758.50
2022-08-20T11:36:27.016Z,98754.44
2022-08-20T11:39:30.349Z,98748.63
2022-08-20T11:42:33.627Z,98737.72
2022-08-20T11:45:38.394Z,98733.97
2022-08-20T11:48:41.685Z,98718.53
2022-08-20T11:51:49.602Z,98719.16
2022-08-20T11:54:54.836Z,98717.53
2022-08-20T11:57:59.666Z,98717.44
2022-08-20T12:01:05.463Z,98709.00
2022-08-20T12:04:08.870Z,98712.69
2022-08-20T12:07:13.411Z,98712.38
2022-08-20T12:10:17.224Z,98707.31
2022-08-20T12:13:20.560Z,98710.59
2022-08-20T12:16:28.302Z,98707.31
2022-08-20T12:19:31.584Z,98704.03
2022-08-20T12:22:35.050Z,98700.22
2022-08-20T12:25:38.341Z,98705.63
2022-08-20T12:28:41.697Z,98699.94
2022-08-20T12:31:46.500Z,98698.66
2022-08-20T12:34:50.678Z,98688.38
2022-08-20T12:37:54.427Z,98685.13
2022-08-20T12:40:57.756Z,98665.88
2022-08-20T12:44:07.088Z,98673.00
2022-08-20T12:47:20.302Z,98676.19
2022-08-20T12:50:30.914Z,98677.81
2022-08-20T12:53:34.813Z,98684.28
2022-08-20T12:56:38.100Z,98676.34
2022-08-20T12:59:41.488Z,98659.94
2022-08-20T13:02:46.323Z,98663.34
2022-08-20T13:05:50.372Z,98668.84
2022-08-20T13:08:53.692Z,98663.50
2022-08-20T13:11:57.135Z,98656.88
2022-08-20T13:15:00.513Z,98644.38
2022-08-20T13:18:07.153Z,98646.38
2022-08-20T13:21:10.501Z,98637.75
2022-08-20T13:24:13.814Z,98635.66
2022-08-20T13:27:22.789Z,98631.38
2022-08-20T13:30:26.749Z,98633.84
2022-08-20T13:33:31.982Z,98627.13
2022-08-20T13:36:35.831Z,98616.22
2022-08-20T13:39:40.303Z,98607.97
2022-08-20T13:42:43.727Z,98599.78
2022-08-20T13:45:47.044Z,98598.22
2022-08-20T13:48:51.814Z,98595.28
2022-08-20T13:51:55.124Z,98586.28
2022-08-20T13:54:58.370Z,98592.41
2022-08-20T13:58:06.796Z,98584.75
2022-08-20T14:01:10.112Z,98582.81
2022-08-20T14:04:14.887Z,98586.63
2022-08-20T14:07:20.989Z,98586.38
2022-08-20T14:10:31.379Z,98587.47
2022-08-20T14:13:34.915Z,98594.25
2022-08-20T14:16:39.888Z,98592.75
2022-08-20T14:19:45.410Z,98579.78
2022-08-20T14:22:48.998Z,98578.38
2022-08-20T14:25:52.279Z,98576.25
2022-08-20T14:28:55.657Z,98569.50
2022-08-20T14:31:58.948Z,98566.34
2022-08-20T14:35:03.782Z,98570.25
2022-08-20T14:38:07.488Z,98567.63
2022-08-20T14:41:10.776Z,98565.53
2022-08-20T14:44:14.077Z,98570.28
2022-08-20T14:47:20.825Z,98559.72
2022-08-20T14:50:29.071Z,98554.22
2022-08-20T14:53:32.385Z,98542.16
2022-08-20T14:56:35.696Z,98546.38
2022-08-20T14:59:39.201Z,98549.09
2022-08-20T15:02:42.580Z,98540.66
2022-08-20T15:05:47.311Z,98542.34
2022-08-20T15:08:53.649Z,98545.66
2022-08-20T15:11:57.010Z,98547.97
2022-08-20T15:15:13.386Z,98554.47
2022-08-20T15:18:19.351Z,98565.56
2022-08-20T15:21:24.045Z,98573.69
2022-08-20T15:24:27.365Z,98580.97
2022-08-20T15:27:30.643Z,98582.41
2022-08-20T15:30:33.971Z,98577.06
2022-08-20T15:33:37.467Z,98573.22
2022-08-20T15:36:42.198Z,98576.84
2022-08-20T15:39:46.553Z,98577.84
2022-08-20T15:42:50.062Z,98588.78
2022-08-20T15:45:53.492Z,98588.34
2022-08-20T15:48:56.935Z,98588.34
2022-08-20T15:52:01.768Z,98587.56
2022-08-20T15:55:07.094Z,98588.22
2022-08-20T15:58:19.606Z,98589.47
2022-08-20T16:01:33.838Z,98587.47
2022-08-20T16:05:01.522Z,98584.38
2022-08-20T16:08:17.185Z,98580.28
2022-08-20T16:11:42.855Z,98584.84
2022-08-20T16:14:52.120Z,98584.00
2022-08-20T16:18:04.183Z,98589.31
2022-08-20T16:21:13.438Z,98596.44
2022-08-20T16:24:20.015Z,98600.41
2022-08-20T16:27:33.271Z,98603.78
2022-08-20T16:30:42.124Z,98620.84
2022-08-20T16:33:59.252Z,98623.13
2022-08-20T16:37:11.572Z,98629.50
2022-08-20T16:40:23.758Z,98643.47
2022-08-20T16:43:33.508Z,98656.19
2022-08-20T16:46:41.270Z,98650.63
2022-08-20T16:49:50.357Z,98653.47
2022-08-20T16:52:54.346Z,98645.81
2022-08-20T16:55:59.074Z,98659.31
2022-08-20T16:59:07.217Z,98659.72
2022-08-20T17:02:12.429Z,98664.72
2022-08-20T17:05:15.932Z,98671.72
2022-08-20T17:08:29.930Z,98674.03
2022-08-20T17:11:35.894Z,98688.59
2022-08-20T17:14:50.073Z,98688.84
2022-08-20T17:17:55.796Z,98678.34
2022-08-20T17:21:03.672Z,98680.28
2022-08-20T17:24:16.579Z,98681.78
2022-08-20T17:27:37.777Z,98672.81
2022-08-20T17:30:42.295Z,98676.44
2022-08-20T17:33:46.640Z,98672.84
2022-08-20T17:36:54.618Z,98676.78
2022-08-20T17:40:10.624Z,98680.06
2022-08-20T17:43:27.535Z,98677.19
2022-08-20T17:46:43.938Z,98691.53
2022-08-20T17:50:02.164Z,98699.75
2022-08-20T17:53:14.777Z,98699.03
2022-08-20T17:56:22.788Z,98701.69
2022-08-20T17:59:47.697Z,98714.78
2022-08-20T18:03:00.444Z,98720.22
2022-08-20T18:06:09.502Z,98721.72
2022-08-20T18:09:18.409Z,98727.66
2022-08-20T18:12:34.227Z,98725.78
2022-08-20T18:15:50.760Z,98737.34
2022-08-20T18:18:58.674Z,98745.06
2022-08-20T18:22:12.042Z,98746.34
2022-08-20T18:25:26.405Z,98748.19
2022-08-20T18:28:38.364Z,98747.75
2022-08-20T18:31:48.756Z,98737.88
2022-08-20T18:34:52.843Z,98737.34
2022-08-20T18:37:56.155Z,98730.06
2022-08-20T18:41:11.541Z,98735.00
2022-08-20T18:44:16.954Z,98747.47
2022-08-20T18:47:25.089Z,98759.53
2022-08-20T18:50:42.942Z,98759.47
2022-08-20T18:53:51.810Z,98756.28
2022-08-20T18:57:05.524Z,98747.41
2022-08-20T19:00:13.251Z,98742.03
2022-08-20T19:03:22.744Z,98728.34
2022-08-20T19:06:43.057Z,98719.81
2022-08-20T19:10:03.000Z,98708.63
2022-08-20T19:13:28.872Z,98724.81
2022-08-20T19:16:38.271Z,98720.78
2022-08-20T19:19:43.057Z,98738.16
2022-08-20T19:22:48.054Z,98733.22
2022-08-20T19:25:55.740Z,98733.94
2022-08-20T19:29:01.976Z,98769.34
2022-08-20T19:32:08.836Z,98802.13
2022-08-20T19:35:18.907Z,98853.66
2022-08-20T19:38:22.708Z,98873.59
2022-08-20T19:41:31.451Z,98868.75
2022-08-20T19:44:42.025Z,98884.41
2022-08-20T19:47:58.565Z,98914.44
2022-08-20T19:51:10.271Z,98929.44
2022-08-20T19:54:21.012Z,98945.69
2022-08-20T19:57:27.290Z,98958.91
2022-08-20T20:00:39.168Z,98955.44
2022-08-20T20:03:43.105Z,98968.03
2022-08-20T20:06:50.089Z,98979.19
2022-08-20T20:09:56.677Z,98994.13
2022-08-20T20:13:06.866Z,98984.31
2022-08-20T20:16:10.430Z,98990.50
2022-08-20T20:19:26.447Z,98986.75
2022-08-20T20:22:34.346Z,98988.56
2022-08-20T20:25:41.512Z,98979.19
2022-08-20T20:28:47.371Z,98989.63
2022-08-20T20:31:53.967Z,98981.91
2022-08-20T20:35:00.061Z,98984.63
2022-08-20T20:38:08.126Z,98976.59
2022-08-20T20:41:21.667Z,99000.31
2022-08-20T20:44:28.332Z,98991.53
2022-08-20T20:47:35.965Z,99019.06
2022-08-20T20:50:40.158Z,99046.97
2022-08-20T20:53:54.867Z,99065.25
2022-08-20T20:57:04.064Z,99036.44
2022-08-20T21:00:12.725Z,99036.25
2022-08-20T21:03:16.092Z,99039.91
2022-08-20T21:06:20.988Z,99027.38
2022-08-20T21:09:27.586Z,99048.00
2022-08-20T21:12:31.024Z,99035.81
2022-08-20T21:15:35.239Z,99010.31
2022-08-20T21:18:38.715Z,99021.28
2022-08-20T21:21:43.851Z,98972.13
2022-08-20T21:24:51.533Z,98960.59
2022-08-20T21:27:55.099Z,98977.31
2022-08-20T21:30:58.650Z,98975.19
2022-08-20T21:34:02.207Z,99001.66
2022-08-20T21:37:05.522Z,98974.72
2022-08-20T21:40:12.173Z,99003.38
2022-08-20T21:43:15.706Z,99035.63
2022-08-20T21:46:25.013Z,99005.25
2022-08-20T21:49:30.407Z,99037.34
2022-08-20T21:52:35.447Z,99055.63
2022-08-20T21:55:41.404Z,99058.09
2022-08-20T21:58:47.517Z,99043.78
2022-08-20T22:01:51.218Z,99038.47
2022-08-20T22:04:54.586Z,99029.75
2022-08-20T22:07:57.884Z,99035.69
2022-08-20T22:11:03.309Z,99004.13
2022-08-20T22:14:09.484Z,99005.53
2022-08-20T22:17:12.920Z,98985.09
2022-08-20T22:20:16.232Z,98967.81
2022-08-20T22:23:19.686Z,98971.84
2022-08-20T22:26:27.301Z,98984.06
2022-08-20T22:29:30.763Z,98993.50
2022-08-20T22:32:46.871Z,98987.41
2022-08-20T22:35:57.855Z,98971.56
2022-08-20T22:39:01.447Z,98963.03
2022-08-20T22:42:06.411Z,98958.41
2022-08-20T22:45:14.511Z,98955.94
2022-08-20T22:48:20.826Z,98956.97
2022-08-20T22:51:30.407Z,98952.22
2022-08-20T22:54:35.020Z,98952.28
2022-08-20T22:57:40.110Z,98948.78
2022-08-20T23:00:45.921Z,98928.84
2022-08-20T23:03:49.291Z,98903.47
2022-08-20T23:06:52.823Z,98888.03
2022-08-20T23:09:56.144Z,98895.06
2022-08-20T23:13:01.024Z,98915.50
2022-08-20T23:16:05.221Z,98932.16
2022-08-20T23:19:10.653Z,98935.50
2022-08-20T23:22:14.252Z,98950.00
2022-08-20T23:25:17.617Z,98959.88
2022-08-20T23:28:25.124Z,98954.34
2022-08-20T23:31:28.417Z,98965.25
2022-08-20T23:34:31.865Z,98949.31
2022-08-20T23:37:38.892Z,98945.34
2022-08-20T23:40:42.718Z,98913.63
2022-08-20T23:43:47.448Z,98889.94
2022-08-20T23:46:50.993Z,98873.28
2022-08-20T23:49:58.094Z,98895.53
2022-08-20T23:53:01.367Z,98895.09
2022-08-20T23:56:05.545Z,98898.47
2022-08-20T23:59:10.228Z,98888.63
